Latest Weather Observations for Longreach

IDQ60801

Issued at 8:21 am EST Wednesday 23 October 2019 (issued every 10 minutes, with the page automatically refreshed every 10 minutes)

About weather observations | Map of weather stations | Latest weather observations for QLD | Other Formats
Station Details ID: 036031 Name: LONGREACH AERO Lat: -23.44 Lon: 144.28 Height: 192.2 m
Data from the previous 72 hours. | See also: Recent months at Longreach
Date/Time
EST
Temp
°C
App
Temp
°C
Dew
Point
°C
Rel
Hum
%
Delta-T
°C
Wind Press
QNH
hPa
Press
MSL
hPa
Rain since
9am
mm
Dir  Spd
km/h
Gust
km/h
Spd
kts
Gust
kts
23/08:00am 24.8 17.2 9.1 37 8.6 NE 39 54 21 29 1020.9 1019.9 -
23/07:30am 24.0 17.7 9.6 40 7.9 NE 33 43 18 23 1020.7 1019.7 -
23/07:00am 22.9 17.7 10.3 45 6.9 NE 28 35 15 19 1020.3 1019.4 -
23/06:30am 21.6 18.4 10.1 48 6.3 ENE 17 20 9 11 1019.8 1018.8 -
23/06:00am 21.0 17.8 9.9 49 6.0 NE 17 20 9 11 1019.3 1018.3 -
23/05:30am 20.5 17.2 9.4 49 6.0 NE 17 19 9 10 1018.6 1017.6 -
23/05:00am 20.4 16.8 8.4 46 6.3 NE 17 19 9 10 1018.0 1017.0 -
23/04:30am 20.6 16.7 6.9 41 7.0 NE 17 20 9 11 1017.6 1016.6 -
23/04:00am 20.9 16.3 5.7 37 7.6 NE 19 22 10 12 1017.3 1016.3 -
23/03:30am 20.3 16.0 3.5 33 8.1 NE 15 19 8 10 1017.0 1016.0 -
23/03:00am 20.7 16.4 3.0 31 8.4 NE 15 17 8 9 1017.0 1016.0 0.0
23/02:30am 19.9 15.9 2.7 32 8.1 NE 13 15 7 8 1016.9 1015.9 -
23/02:00am 19.2 15.2 2.6 33 7.7 NNE 13 13 7 7 1016.9 1015.9 -
23/01:30am 19.2 15.5 2.1 32 7.9 NNE 11 13 6 7 1017.0 1016.0 -
23/01:00am 21.8 18.6 3.0 29 9.0 NNE 9 11 5 6 1017.2 1016.2 -
23/12:30am 22.7 18.8 3.3 28 9.4 NE 13 15 7 8 1017.5 1016.5 -
23/12:00am 23.8 19.6 3.7 27 9.9 ENE 15 17 8 9 1017.6 1016.6 -
 
Date/Time
EST
Temp
°C
App
Temp
°C
Dew
Point
°C
Rel
Hum
%
Delta-T
°C
Wind Press
QNH
hPa
Press
MSL
hPa
Rain since
9am
mm
Dir  Spd
km/h
Gust
km/h
Spd
kts
Gust
kts
22/11:30pm 24.4 19.8 3.7 26 10.3 NE 17 19 9 10 1017.8 1016.8 -
22/11:00pm 24.9 20.4 4.1 26 10.4 ENE 17 19 9 10 1018.0 1017.0 -
22/10:30pm 24.9 20.4 4.1 26 10.4 ENE 17 19 9 10 1018.0 1017.0 -
22/10:00pm 25.6 21.1 4.1 25 10.8 ENE 17 19 9 10 1018.2 1017.2 -
22/09:30pm 26.0 21.6 4.5 25 10.9 ENE 17 19 9 10 1018.0 1017.0 -
22/09:00pm 26.6 22.1 4.4 24 11.3 ENE 17 20 9 11 1017.9 1016.9 0.0
22/08:30pm 27.4 22.6 4.5 23 11.7 E 19 24 10 13 1017.7 1016.7 -
22/08:00pm 28.1 23.6 4.4 22 12.2 E 17 22 9 12 1017.4 1016.4 -
22/07:30pm 28.4 24.0 4.6 22 12.3 E 17 19 9 10 1017.2 1016.2 -
22/07:00pm 29.0 24.4 3.8 20 12.9 E 17 20 9 11 1016.9 1015.9 -
22/06:30pm 30.5 25.6 4.3 19 13.6 E 19 26 10 14 1016.5 1015.5 -
22/06:00pm 31.7 26.7 3.7 17 14.5 E 19 28 10 15 1016.1 1015.1 -
22/05:30pm 32.3 27.1 3.3 16 15.0 E 20 30 11 16 1015.8 1014.8 -
22/05:00pm 32.7 28.1 3.6 16 15.1 ENE 17 26 9 14 1015.6 1014.6 -
22/04:30pm 32.8 28.0 4.6 17 14.9 E 19 32 10 17 1015.6 1014.6 -
22/04:00pm 33.4 28.1 5.0 17 15.2 E 22 35 12 19 1015.6 1014.6 -
22/03:30pm 32.2 26.7 4.1 17 14.7 E 22 33 12 18 1015.8 1014.8 -
22/03:00pm 32.5 27.8 5.1 18 14.6 E 19 35 10 19 1016.1 1015.1 -
22/02:30pm 32.3 27.9 5.0 18 14.5 ENE 17 32 9 17 1016.6 1015.6 -
22/02:00pm 33.4 29.4 6.6 19 14.7 E 17 33 9 18 1016.9 1015.9 -
22/01:30pm 32.7 28.4 5.3 18 14.7 NE 17 26 9 14 1017.4 1016.4 -
22/01:00pm 32.5 27.7 7.4 21 13.9 E 22 41 12 22 1017.9 1016.9 -
22/12:30pm 32.7 28.1 8.2 22 13.7 ENE 22 35 12 19 1018.3 1017.3 -
22/12:00pm 31.5 26.4 9.1 25 12.6 NE 26 39 14 21 1019.0 1018.0 -
22/11:44am 31.4 26.0 9.6 26 12.4 NE 28 46 15 25 1019.2 1018.2 -
22/11:30am 31.3 26.2 10.6 28 12.0 NE 28 41 15 22 1019.5 1018.5 -
22/11:00am 30.7 24.5 10.1 28 11.8 NE 33 50 18 27 1020.0 1019.0 -
22/10:58am 30.7 24.7 10.1 28 11.8 NE 32 50 17 27 1019.9 1018.9 -
22/10:30am 29.6 23.6 10.7 31 10.9 NE 33 48 18 26 1020.3 1019.4 -
22/10:00am 29.1 23.3 10.7 32 10.5 NE 32 48 17 26 1020.7 1019.7 -
22/09:30am 27.6 21.1 11.6 37 9.3 NE 37 48 20 26 1020.9 1019.9 0.0
22/09:00am 26.6 20.4 11.5 39 8.7 NE 35 50 19 27 1021.1 1020.1 0.2
22/08:30am 26.4 20.3 11.7 40 8.5 NE 35 46 19 25 1021.0 1020.0 0.0
22/08:00am 25.5 19.4 11.7 42 7.9 NE 35 46 19 25 1020.6 1019.6 0.0
22/07:30am 24.6 18.6 10.8 42 7.8 ENE 33 44 18 24 1020.3 1019.4 0.0
22/07:00am 23.4 17.0 9.4 41 7.6 ENE 33 39 18 21 1019.9 1018.9 0.0
22/06:30am 22.3 16.4 7.3 38 7.8 ENE 28 35 15 19 1019.4 1018.4 0.0
22/06:00am 21.8 15.8 6.9 38 7.7 ENE 28 32 15 17 1018.9 1017.9 0.0
22/05:30am 21.7 16.3 6.4 37 7.8 E 24 30 13 16 1018.6 1017.6 0.0
22/05:00am 21.5 16.2 6.6 38 7.6 E 24 30 13 16 1018.2 1017.2 0.0
22/04:30am 18.8 13.2 -0.1 28 8.3 E 19 22 10 12 1017.8 1016.8 0.0
22/04:00am 18.4 12.5 -5.6 19 9.4 ESE 17 19 9 10 1017.5 1016.5 0.0
22/03:30am 18.7 13.1 -6.8 17 9.8 ESE 15 17 8 9 1017.4 1016.4 0.0
22/03:00am 19.2 13.4 -8.9 14 10.4 ESE 15 19 8 10 1017.4 1016.4 0.0
22/02:30am 19.7 12.9 -9.5 13 10.7 ESE 20 28 11 15 1017.5 1016.5 0.0
22/02:00am 19.1 13.0 -8.1 15 10.2 SE 17 19 9 10 1017.2 1016.2 0.0
22/01:30am 19.1 13.0 -8.1 15 10.2 SE 17 19 9 10 1017.3 1016.3 0.0
22/01:00am 19.6 13.5 -7.7 15 10.4 SE 17 20 9 11 1017.3 1016.3 0.0
22/12:30am 20.1 14.0 -7.3 15 10.6 SE 17 20 9 11 1017.5 1016.5 0.0
22/12:00am 21.1 15.0 -7.4 14 11.1 SE 17 20 9 11 1017.8 1016.8 0.0
 
Date/Time
EST
Temp
°C
App
Temp
°C
Dew
Point
°C
Rel
Hum
%
Delta-T
°C
Wind Press
QNH
hPa
Press
MSL
hPa
Rain since
9am
mm
Dir  Spd
km/h
Gust
km/h
Spd
kts
Gust
kts
21/11:30pm 22.5 16.4 -7.3 13 11.8 SE 17 20 9 11 1018.0 1017.0 0.0
21/11:00pm 23.6 16.7 -6.4 13 12.2 SE 22 28 12 15 1018.1 1017.1 0.0
21/10:30pm 22.6 16.2 -7.2 13 11.8 SE 19 24 10 13 1018.1 1017.1 0.0
21/10:00pm 23.0 17.0 -6.9 13 11.9 SE 17 19 9 10 1018.1 1017.1 0.0
21/09:30pm 23.1 17.5 -6.8 13 12.0 SE 15 17 8 9 1017.8 1016.8 0.0
21/09:00pm 23.8 18.1 -7.3 12 12.4 SE 15 17 8 9 1017.7 1016.7 0.0
21/08:30pm 24.7 19.0 -7.7 11 13.0 SE 15 19 8 10 1017.5 1016.5 0.0
21/08:00pm 26.4 20.3 -7.6 10 13.9 SE 17 17 9 9 1017.4 1016.4 0.0
21/07:30pm 27.3 21.7 -6.9 10 14.3 SE 15 17 8 9 1017.1 1016.1 0.0
21/07:00pm 29.0 23.0 -7.0 9 15.2 SE 17 19 9 10 1016.8 1015.8 0.0
21/06:30pm 30.4 24.5 -6.0 9 15.9 SE 17 19 9 10 1016.4 1015.4 0.0
21/06:00pm 31.9 26.1 -4.9 9 16.5 ESE 17 19 9 10 1016.0 1015.0 0.0
21/05:30pm 32.9 26.6 -4.1 9 17.0 SE 20 28 11 15 1015.6 1014.6 0.0
21/05:00pm 33.2 27.1 -3.9 9 17.1 ESE 19 30 10 16 1015.3 1014.2 0.0
21/04:30pm 33.8 27.4 -5.0 8 17.7 E 20 32 11 17 1015.2 1014.1 0.0
21/04:00pm 33.8 27.6 -5.0 8 17.6 SE 19 33 10 18 1015.2 1014.1 0.0
21/03:30pm 33.9 26.9 -3.4 9 17.4 SE 24 37 13 20 1015.4 1014.3 0.0
21/03:00pm 33.8 27.6 -3.5 9 17.4 E 20 33 11 18 1015.5 1014.4 0.0
21/02:30pm 33.9 29.2 -2.0 10 17.2 E 13 30 7 16 1015.7 1014.7 0.0
21/02:00pm 33.5 27.4 -2.3 10 17.0 SE 20 28 11 15 1016.1 1015.1 0.0
21/01:30pm 33.3 26.8 -2.4 10 16.9 ENE 22 33 12 18 1016.6 1015.6 0.0
21/01:00pm 33.4 28.8 -1.0 11 16.7 E 13 26 7 14 1017.0 1016.0 0.0
21/12:30pm 33.8 28.1 -0.7 11 16.9 ENE 19 33 10 18 1017.5 1016.5 0.0
21/12:00pm 32.5 26.4 0.6 13 15.8 E 22 39 12 21 1018.0 1017.0 0.0
21/11:30am 31.3 24.5 0.6 14 15.1 ENE 26 41 14 22 1018.4 1017.4 0.0
21/11:00am 30.9 22.9 0.3 14 14.9 ENE 32 43 17 23 1019.0 1018.0 0.0
21/10:30am 30.5 22.4 1.0 15 14.5 ENE 33 44 18 24 1019.4 1018.4 0.0
21/10:00am 29.8 21.5 2.1 17 13.8 E 35 48 19 26 1019.8 1018.8 0.0
21/09:30am 29.0 20.3 -0.2 15 13.9 E 35 50 19 27 1020.0 1019.0 0.0
21/09:00am 27.6 17.5 -2.3 14 13.5 E 41 54 22 29 1020.2 1019.3 0.0
21/08:30am 26.6 17.6 0.4 18 12.4 ESE 37 46 20 25 1020.1 1019.2 0.0
21/08:00am 24.5 15.3 -4.7 14 12.3 ESE 35 48 19 26 1020.2 1019.3 0.0
21/07:30am 22.2 14.3 -4.8 16 11.2 SE 28 39 15 21 1020.0 1019.0 0.0
21/07:00am 20.0 12.9 -4.3 19 9.9 SE 24 33 13 18 1019.9 1018.9 0.0
21/06:30am 18.0 11.6 -4.6 21 9.0 SE 20 30 11 16 1019.6 1018.6 0.0
21/06:00am 17.0 9.9 -4.8 22 8.5 SE 24 30 13 16 1019.2 1018.2 0.0
21/05:30am 17.6 10.4 -5.0 21 8.9 SE 24 30 13 16 1018.7 1017.7 0.0
21/05:00am 18.0 10.9 -4.6 21 9.0 SE 24 30 13 16 1018.5 1017.5 0.0
21/04:30am 18.6 11.5 -4.8 20 9.3 SE 24 32 13 17 1018.2 1017.2 0.0
21/04:00am 19.1 12.0 -4.4 20 9.5 SE 24 32 13 17 1017.8 1016.8 0.0
21/03:30am 19.6 12.1 -4.6 19 9.8 SE 26 35 14 19 1017.6 1016.6 0.0
21/03:00am 20.0 12.5 -4.3 19 9.9 SE 26 33 14 18 1017.8 1016.8 0.0
21/02:30am 20.5 12.6 -4.6 18 10.3 SE 28 37 15 20 1017.9 1016.9 0.0
21/02:00am 20.9 13.7 -5.0 17 10.5 SE 24 33 13 18 1018.0 1017.0 0.0
21/01:30am 21.3 14.1 -5.5 16 10.8 SSE 24 30 13 16 1018.1 1017.1 0.0
21/01:00am 21.9 15.0 -5.9 15 11.2 SSE 22 30 12 16 1018.2 1017.2 0.0
21/12:30am 21.1 14.5 -7.4 14 11.1 SSE 20 26 11 14 1018.3 1017.3 0.0
21/12:00am 22.2 15.2 -7.5 13 11.6 S 22 30 12 16 1018.3 1017.3 0.0
 
Date/Time
EST
Temp
°C
App
Temp
°C
Dew
Point
°C
Rel
Hum
%
Delta-T
°C
Wind Press
QNH
hPa
Press
MSL
hPa
Rain since
9am
mm
Dir  Spd
km/h
Gust
km/h
Spd
kts
Gust
kts
20/11:30pm 22.5 15.9 -7.3 13 11.8 S 20 30 11 16 1018.4 1017.4 0.0
20/11:00pm 23.0 16.5 -7.9 12 12.1 S 19 26 10 14 1018.4 1017.4 0.0
20/10:30pm 23.6 17.1 -7.4 12 12.4 S 19 24 10 13 1018.5 1017.5 0.0
20/10:00pm 24.1 17.7 -7.0 12 12.5 S 19 24 10 13 1018.3 1017.3 0.0
20/09:30pm 25.3 18.7 -7.2 11 13.2 S 20 28 11 15 1018.3 1017.3 0.0
20/09:00pm 26.9 20.3 -7.2 10 14.1 S 20 26 11 14 1018.1 1017.1 0.0
20/08:30pm 26.7 20.6 -7.4 10 14.0 S 17 24 9 13 1017.9 1016.9 0.0
20/08:00pm 26.0 20.6 -7.9 10 13.7 S 13 17 7 9 1017.4 1016.4 0.0
20/07:30pm 26.3 21.0 -7.7 10 13.8 S 13 15 7 8 1017.0 1016.0 0.0
20/07:00pm 28.1 22.8 -7.7 9 14.8 S 13 15 7 8 1016.6 1015.6 0.0
20/06:30pm 30.0 24.0 -6.3 9 15.7 S 17 24 9 13 1016.2 1015.2 0.0
20/06:00pm 31.2 24.6 -6.9 8 16.4 SSE 20 26 11 14 1015.9 1014.9 0.0
20/05:30pm 32.0 25.7 -6.3 8 16.8 S 19 26 10 14 1015.7 1014.7 0.0
20/05:00pm 32.4 25.9 -6.0 8 17.0 S 20 32 11 17 1015.4 1014.3 0.0
20/04:30pm 32.6 25.7 -5.9 8 17.1 SSE 22 35 12 19 1015.2 1014.1 0.0
20/04:00pm 32.5 25.2 -6.0 8 17.0 S 24 37 13 20 1015.2 1014.1 0.0
20/03:30pm 32.5 26.0 -6.0 8 17.1 SSE 20 39 11 21 1015.3 1014.2 0.0
20/03:00pm 32.8 26.9 -5.7 8 17.2 SSE 17 26 9 14 1015.7 1014.7 0.0
20/02:30pm 32.3 26.4 -6.1 8 17.0 SSE 17 33 9 18 1016.0 1015.0 0.0
20/02:00pm 32.5 26.2 -6.0 8 17.0 SSE 19 35 10 19 1016.4 1015.4 0.0
20/01:30pm 31.9 23.8 -6.4 8 16.8 S 28 43 15 23 1017.0 1016.0 0.0
20/01:26pm 32.2 25.3 -6.2 8 16.9 SSW 22 43 12 23 1017.1 1016.1 0.0
20/01:00pm 31.7 26.1 -6.6 8 16.7 SSW 15 20 8 11 1017.3 1016.3 0.0
20/12:30pm 31.7 25.7 -6.6 8 16.7 S 17 30 9 16 1017.7 1016.7 0.0
20/12:00pm 32.7 26.8 -5.8 8 17.1 SSW 17 28 9 15 1018.2 1017.2 0.0
20/11:30am 30.8 25.1 -7.2 8 16.3 SE 15 44 8 24 1018.8 1017.8 0.0
20/11:00am 30.8 24.5 -5.7 9 16.0 SSE 19 32 10 17 1019.1 1018.1 0.0
20/10:30am 30.2 22.5 -6.1 9 15.8 SE 26 35 14 19 1019.5 1018.5 0.0
20/10:00am 29.8 21.6 -3.8 11 15.1 SE 30 37 16 20 1019.8 1018.8 0.0
20/09:30am 28.8 20.3 -3.4 12 14.5 SE 32 41 17 22 1020.1 1019.2 0.0
20/09:00am 27.5 18.8 -3.3 13 13.7 SE 33 43 18 23 1020.4 1019.5 0.0
20/08:30am 26.2 17.0 -4.4 13 13.2 SE 35 48 19 26 1020.4 1019.5 0.0

Other formats

Comma delimited format used in spreadsheet applications
http://www.bom.gov.au/fwo/IDQ60801/IDQ60801.94346.axf

JavaScript Object Notation format (JSON) in row-major order
http://www.bom.gov.au/fwo/IDQ60801/IDQ60801.94346.json

Data quality

Most of these data are generated automatically and are frequently updated. Quality checks on data are not normally performed. It is possible for incorrect values to appear. Refer to information at About Latest Weather Observations and please check the disclaimer before using these data.